Airfield :
LOGIN :

Register | Disclaimer

   EN    FR    IT 

 










Legend :    VFR   Marginal VFR   IFR   Intensive IFR   Very Intensive IFR
Visi :
Ceiling :
>= 8 km
>= 3000ft
5 to 8 km
1000 to 3000 ft
1500m to 5 km
500 to 1000 ft
800 to 1500m
200 to 500 ft
< 800m
< 200 ft
Symbols :   Thunderstorms  Fog  Heavy snow  Heavy precipitations  Wind > 20 kt
SIGMETs :     Misc.  Thunderstorms  Icing  Turbulence  Mountain Waves  Volcanic Ashes







- Airport Elevation : 236 ft
- IATA code : MMX


ESMS - Malmö Sturup

CURRENT METAR :
  • 211750Z 31009KT 0900 R17/P1500N R35/P1500N FG OVC002 07/07 Q1019 R17/29//95

EXPIRED METARs :
  • 211720Z 30009KT 2300 BR OVC002 07/07 Q1019 REDZ R17/29//95
  • 211650Z 30008KT 1700 DZ OVC002 07/07 Q1019 REDZ R17/29//95
  • 211620Z 31007KT 1300 R17/P1500N R35/P1500N BR OVC002 07/07 Q1018 R17/29//95
  • 211550Z 31007KT 1700 -DZ BR OVC002 07/07 Q1018 R17/29//95
  • 211520Z 31008KT 2200 -DZ BR OVC002 07/07 Q1018 R17/29//95

TAF TAF ESMS
Valid from the 21 at 18:00 until the 22 at 18:00 UTC


211713Z 2118/2218 05010KT 1200 BR BKN002
TEMPO 2118/2121 5000 -RADZ BKN008
TEMPO 2121/2123 6000 NSW BKN010
BECMG 2123/2201 8000 NSW SCT020
BECMG 2210/2212 12010KT
No reported NOTAMs for that airfield.



MET'MAP, your aeronautical weather chart ! - Copyright ORBIFLY December 2007 - Disclaimer

ORBIFLY MET'MAP TEAM :

Programming & Development : Alexandra Zaïnal
Concept & Development : Baudouin d'Aumeries
Co-Development & Prog : Marc-Olivier Méhu
Technical & hardware support : Manuel Goepfert

Contact : metmap@orbifly.com




SOURCES & CREDITS :

   NOAA